<?xml version="1.0" encoding="UTF-8" standalone="no" ?>
<gpx xmlns="http://www.topografix.com/GPX/1/1" xmlns:xsi="http://www.w3.org/2001/XMLSchema-instance" xsi:schemaLocation="http://www.topografix.com/GPX/1/1 http://www.topografix.com/GPX/1/1/gpx.xsd" version="1.1" creator="VisuGPX - https://www.visugpx.com">
  <metadata>
    <name>Crêtes du Grand Barry-Gaudichart au départ de Vercheny-le-Temple</name>
  </metadata>
  <wpt lat="44.71109" lon="5.25102">
    <ele>430.4</ele>
    <name><![CDATA[Parking entrée du village ]]></name>
  </wpt>
  <wpt lat="44.71093" lon="5.24986">
    <ele>435.4</ele>
    <name><![CDATA[Ruelle, à droite, direction Nord]]></name>
  </wpt>
  <wpt lat="44.71937" lon="5.25264">
    <ele>462.3</ele>
    <name><![CDATA[Fourche, à gauche, direction Nord-Est]]></name>
  </wpt>
  <wpt lat="44.72566" lon="5.25491">
    <ele>473.2</ele>
    <name><![CDATA[Prendre sentier direction Nord-Ouest]]></name>
  </wpt>
  <wpt lat="44.72672" lon="5.25426">
    <ele>485.4</ele>
    <name><![CDATA[A gauche, direction Nord]]></name>
  </wpt>
  <wpt lat="44.73534" lon="5.25053">
    <ele>813.7</ele>
    <name><![CDATA[Sentier à gauche, direction Nord-Ouest]]></name>
  </wpt>
  <wpt lat="44.72678" lon="5.23896">
    <ele>974.3</ele>
    <name><![CDATA[Patte d'oie]]></name>
  </wpt>
  <wpt lat="44.7304" lon="5.23373">
    <ele>1072.2</ele>
    <name><![CDATA[Petit pas sans nom entre deux crêtes]]></name>
  </wpt>
  <wpt lat="44.72544" lon="5.23179">
    <ele>908.2</ele>
    <name><![CDATA[avant le lacet, sentier à droite]]></name>
  </wpt>
  <wpt lat="44.72541" lon="5.23013">
    <ele>934.5</ele>
    <name><![CDATA[à gauche, direction S]]></name>
  </wpt>
  <wpt lat="44.71579" lon="5.23095">
    <ele>858.9</ele>
    <name><![CDATA[Fourche, à gauche direction Sud-Est]]></name>
  </wpt>
  <wpt lat="44.71384" lon="5.23069">
    <ele>824.9</ele>
    <name><![CDATA[à gauche]]></name>
  </wpt>
  <wpt lat="44.70746" lon="5.23114">
    <ele>772.4</ele>
    <name><![CDATA[à gauche, en épingle]]></name>
  </wpt>
  <wpt lat="44.71415" lon="5.23526">
    <ele>699.4</ele>
    <name><![CDATA[à droite, sentier descendant]]></name>
  </wpt>
  <wpt lat="44.71792" lon="5.23755">
    <ele>605.1</ele>
    <name><![CDATA[croisement piste, à droite]]></name>
  </wpt>
  <wpt lat="44.71109" lon="5.25102">
    <ele>430.4</ele>
    <name><![CDATA[Parking entrée du village ]]></name>
  </wpt>
  <trk>
    <name><![CDATA[Crêtes du Grand Barry-Gaudichart au départ de Vercheny-le-Temple]]></name>
    <extensions>
      <line xmlns="http://www.topografix.com/GPX/gpx_style/0/2">
        <color>0000FF</color>
        <width>4</width>
      </line>
    </extensions>
    <trkseg>
      <trkpt lat="44.71109" lon="5.25102">
        <ele>430</ele>
        <time>2021-03-20T17:48:06+01:00</time>
      </trkpt>
      <trkpt lat="44.71098" lon="5.251">
        <ele>430</ele>
        <time>2021-03-20T17:48:11+01:00</time>
      </trkpt>
      <trkpt lat="44.711" lon="5.25077">
        <ele>432</ele>
        <time>2021-03-20T17:48:16+01:00</time>
      </trkpt>
      <trkpt lat="44.71098" lon="5.25042">
        <ele>434</ele>
        <time>2021-03-20T17:48:21+01:00</time>
      </trkpt>
      <trkpt lat="44.71093" lon="5.24986">
        <ele>435</ele>
        <time>2021-03-20T17:48:26+01:00</time>
      </trkpt>
      <trkpt lat="44.71165" lon="5.24988">
        <ele>442</ele>
        <time>2021-03-20T17:48:31+01:00</time>
      </trkpt>
      <trkpt lat="44.71216" lon="5.24988">
        <ele>441</ele>
        <time>2021-03-20T17:48:36+01:00</time>
      </trkpt>
      <trkpt lat="44.71245" lon="5.24989">
        <ele>441</ele>
        <time>2021-03-20T17:48:41+01:00</time>
      </trkpt>
      <trkpt lat="44.71273" lon="5.24988">
        <ele>442</ele>
        <time>2021-03-20T17:48:46+01:00</time>
      </trkpt>
      <trkpt lat="44.71287" lon="5.24967">
        <ele>445</ele>
        <time>2021-03-20T17:48:51+01:00</time>
      </trkpt>
      <trkpt lat="44.71295" lon="5.24941">
        <ele>448</ele>
        <time>2021-03-20T17:48:56+01:00</time>
      </trkpt>
      <trkpt lat="44.71305" lon="5.24931">
        <ele>449</ele>
        <time>2021-03-20T17:49:01+01:00</time>
      </trkpt>
      <trkpt lat="44.7133" lon="5.24958">
        <ele>448</ele>
        <time>2021-03-20T17:49:06+01:00</time>
      </trkpt>
      <trkpt lat="44.71357" lon="5.24983">
        <ele>449</ele>
        <time>2021-03-20T17:49:11+01:00</time>
      </trkpt>
      <trkpt lat="44.71383" lon="5.25028">
        <ele>450</ele>
        <time>2021-03-20T17:49:16+01:00</time>
      </trkpt>
      <trkpt lat="44.71409" lon="5.25074">
        <ele>451</ele>
        <time>2021-03-20T17:49:21+01:00</time>
      </trkpt>
      <trkpt lat="44.7145" lon="5.2514">
        <ele>453</ele>
        <time>2021-03-20T17:49:26+01:00</time>
      </trkpt>
      <trkpt lat="44.7147" lon="5.25173">
        <ele>454</ele>
        <time>2021-03-20T17:49:31+01:00</time>
      </trkpt>
      <trkpt lat="44.7149" lon="5.25194">
        <ele>455</ele>
        <time>2021-03-20T17:49:36+01:00</time>
      </trkpt>
      <trkpt lat="44.71514" lon="5.25206">
        <ele>456</ele>
        <time>2021-03-20T17:49:41+01:00</time>
      </trkpt>
      <trkpt lat="44.71556" lon="5.25231">
        <ele>455</ele>
        <time>2021-03-20T17:49:46+01:00</time>
      </trkpt>
      <trkpt lat="44.71575" lon="5.25238">
        <ele>455</ele>
        <time>2021-03-20T17:49:51+01:00</time>
      </trkpt>
      <trkpt lat="44.71596" lon="5.25226">
        <ele>456</ele>
        <time>2021-03-20T17:49:56+01:00</time>
      </trkpt>
      <trkpt lat="44.71618" lon="5.2522">
        <ele>457</ele>
        <time>2021-03-20T17:50:01+01:00</time>
      </trkpt>
      <trkpt lat="44.71659" lon="5.25213">
        <ele>457</ele>
        <time>2021-03-20T17:50:06+01:00</time>
      </trkpt>
      <trkpt lat="44.71699" lon="5.25214">
        <ele>458</ele>
        <time>2021-03-20T17:50:11+01:00</time>
      </trkpt>
      <trkpt lat="44.71737" lon="5.25238">
        <ele>454</ele>
        <time>2021-03-20T17:50:16+01:00</time>
      </trkpt>
      <trkpt lat="44.71745" lon="5.25224">
        <ele>457</ele>
        <time>2021-03-20T17:50:21+01:00</time>
      </trkpt>
      <trkpt lat="44.71755" lon="5.25205">
        <ele>463</ele>
        <time>2021-03-20T17:50:26+01:00</time>
      </trkpt>
      <trkpt lat="44.71766" lon="5.25214">
        <ele>463</ele>
        <time>2021-03-20T17:50:31+01:00</time>
      </trkpt>
      <trkpt lat="44.71792" lon="5.25241">
        <ele>463</ele>
        <time>2021-03-20T17:50:36+01:00</time>
      </trkpt>
      <trkpt lat="44.71802" lon="5.25261">
        <ele>463</ele>
        <time>2021-03-20T17:50:41+01:00</time>
      </trkpt>
      <trkpt lat="44.71799" lon="5.25283">
        <ele>460</ele>
        <time>2021-03-20T17:50:46+01:00</time>
      </trkpt>
      <trkpt lat="44.71794" lon="5.25315">
        <ele>456</ele>
        <time>2021-03-20T17:50:51+01:00</time>
      </trkpt>
      <trkpt lat="44.71801" lon="5.25357">
        <ele>453</ele>
        <time>2021-03-20T17:50:56+01:00</time>
      </trkpt>
      <trkpt lat="44.71819" lon="5.25389">
        <ele>455</ele>
        <time>2021-03-20T17:51:01+01:00</time>
      </trkpt>
      <trkpt lat="44.71834" lon="5.25385">
        <ele>459</ele>
        <time>2021-03-20T17:51:06+01:00</time>
      </trkpt>
      <trkpt lat="44.71843" lon="5.25352">
        <ele>460</ele>
        <time>2021-03-20T17:51:11+01:00</time>
      </trkpt>
      <trkpt lat="44.71867" lon="5.25301">
        <ele>462</ele>
        <time>2021-03-20T17:51:16+01:00</time>
      </trkpt>
      <trkpt lat="44.71886" lon="5.25269">
        <ele>463</ele>
        <time>2021-03-20T17:51:21+01:00</time>
      </trkpt>
      <trkpt lat="44.71886" lon="5.25243">
        <ele>466</ele>
        <time>2021-03-20T17:51:26+01:00</time>
      </trkpt>
      <trkpt lat="44.719" lon="5.25212">
        <ele>469</ele>
        <time>2021-03-20T17:51:31+01:00</time>
      </trkpt>
      <trkpt lat="44.71918" lon="5.25216">
        <ele>467</ele>
        <time>2021-03-20T17:51:36+01:00</time>
      </trkpt>
      <trkpt lat="44.71925" lon="5.25244">
        <ele>464</ele>
        <time>2021-03-20T17:51:41+01:00</time>
      </trkpt>
      <trkpt lat="44.71937" lon="5.25264">
        <ele>462</ele>
        <time>2021-03-20T17:51:46+01:00</time>
      </trkpt>
      <trkpt lat="44.7196" lon="5.25269">
        <ele>465</ele>
        <time>2021-03-20T17:51:51+01:00</time>
      </trkpt>
      <trkpt lat="44.71978" lon="5.25297">
        <ele>463</ele>
        <time>2021-03-20T17:51:56+01:00</time>
      </trkpt>
      <trkpt lat="44.71998" lon="5.25344">
        <ele>458</ele>
        <time>2021-03-20T17:52:01+01:00</time>
      </trkpt>
      <trkpt lat="44.72018" lon="5.25353">
        <ele>462</ele>
        <time>2021-03-20T17:52:06+01:00</time>
      </trkpt>
      <trkpt lat="44.7205" lon="5.25387">
        <ele>465</ele>
        <time>2021-03-20T17:52:11+01:00</time>
      </trkpt>
      <trkpt lat="44.72079" lon="5.25432">
        <ele>466</ele>
        <time>2021-03-20T17:52:16+01:00</time>
      </trkpt>
      <trkpt lat="44.72106" lon="5.25445">
        <ele>467</ele>
        <time>2021-03-20T17:52:21+01:00</time>
      </trkpt>
      <trkpt lat="44.72155" lon="5.25471">
        <ele>470</ele>
        <time>2021-03-20T17:52:26+01:00</time>
      </trkpt>
      <trkpt lat="44.7222" lon="5.25505">
        <ele>472</ele>
        <time>2021-03-20T17:52:31+01:00</time>
      </trkpt>
      <trkpt lat="44.72242" lon="5.25501">
        <ele>474</ele>
        <time>2021-03-20T17:52:36+01:00</time>
      </trkpt>
      <trkpt lat="44.72265" lon="5.25483">
        <ele>478</ele>
        <time>2021-03-20T17:52:41+01:00</time>
      </trkpt>
      <trkpt lat="44.72287" lon="5.25486">
        <ele>477</ele>
        <time>2021-03-20T17:52:46+01:00</time>
      </trkpt>
      <trkpt lat="44.72341" lon="5.25491">
        <ele>474</ele>
        <time>2021-03-20T17:52:51+01:00</time>
      </trkpt>
      <trkpt lat="44.72402" lon="5.25476">
        <ele>476</ele>
        <time>2021-03-20T17:52:56+01:00</time>
      </trkpt>
      <trkpt lat="44.72418" lon="5.2547">
        <ele>476</ele>
        <time>2021-03-20T17:53:01+01:00</time>
      </trkpt>
      <trkpt lat="44.7244" lon="5.25467">
        <ele>477</ele>
        <time>2021-03-20T17:53:06+01:00</time>
      </trkpt>
      <trkpt lat="44.72497" lon="5.25473">
        <ele>476</ele>
        <time>2021-03-20T17:53:11+01:00</time>
      </trkpt>
      <trkpt lat="44.72532" lon="5.25483">
        <ele>474</ele>
        <time>2021-03-20T17:53:16+01:00</time>
      </trkpt>
      <trkpt lat="44.72566" lon="5.25491">
        <ele>473</ele>
        <time>2021-03-20T17:53:21+01:00</time>
      </trkpt>
      <trkpt lat="44.72617" lon="5.25409">
        <ele>486</ele>
        <time>2021-03-20T17:53:26+01:00</time>
      </trkpt>
      <trkpt lat="44.72641" lon="5.25401">
        <ele>488</ele>
        <time>2021-03-20T17:53:31+01:00</time>
      </trkpt>
      <trkpt lat="44.7265" lon="5.25387">
        <ele>491</ele>
        <time>2021-03-20T17:53:36+01:00</time>
      </trkpt>
      <trkpt lat="44.72672" lon="5.25426">
        <ele>485</ele>
        <time>2021-03-20T17:53:41+01:00</time>
      </trkpt>
      <trkpt lat="44.727" lon="5.25423">
        <ele>489</ele>
        <time>2021-03-20T17:53:46+01:00</time>
      </trkpt>
      <trkpt lat="44.7275" lon="5.25412">
        <ele>496</ele>
        <time>2021-03-20T17:53:51+01:00</time>
      </trkpt>
      <trkpt lat="44.72794" lon="5.25361">
        <ele>512</ele>
        <time>2021-03-20T17:53:56+01:00</time>
      </trkpt>
      <trkpt lat="44.72765" lon="5.2537">
        <ele>508</ele>
        <time>2021-03-20T17:54:01+01:00</time>
      </trkpt>
      <trkpt lat="44.72746" lon="5.25357">
        <ele>509</ele>
        <time>2021-03-20T17:54:06+01:00</time>
      </trkpt>
      <trkpt lat="44.72736" lon="5.25333">
        <ele>513</ele>
        <time>2021-03-20T17:54:11+01:00</time>
      </trkpt>
      <trkpt lat="44.72723" lon="5.25312">
        <ele>514</ele>
        <time>2021-03-20T17:54:16+01:00</time>
      </trkpt>
      <trkpt lat="44.72713" lon="5.25292">
        <ele>516</ele>
        <time>2021-03-20T17:54:21+01:00</time>
      </trkpt>
      <trkpt lat="44.72704" lon="5.25254">
        <ele>521</ele>
        <time>2021-03-20T17:54:26+01:00</time>
      </trkpt>
      <trkpt lat="44.72712" lon="5.25196">
        <ele>532</ele>
        <time>2021-03-20T17:54:31+01:00</time>
      </trkpt>
      <trkpt lat="44.72725" lon="5.25187">
        <ele>536</ele>
        <time>2021-03-20T17:54:36+01:00</time>
      </trkpt>
      <trkpt lat="44.72739" lon="5.25204">
        <ele>535</ele>
        <time>2021-03-20T17:54:41+01:00</time>
      </trkpt>
      <trkpt lat="44.72745" lon="5.25217">
        <ele>534</ele>
        <time>2021-03-20T17:54:46+01:00</time>
      </trkpt>
      <trkpt lat="44.72758" lon="5.2523">
        <ele>535</ele>
        <time>2021-03-20T17:54:51+01:00</time>
      </trkpt>
      <trkpt lat="44.72793" lon="5.25243">
        <ele>539</ele>
        <time>2021-03-20T17:54:56+01:00</time>
      </trkpt>
      <trkpt lat="44.72831" lon="5.25242">
        <ele>545</ele>
        <time>2021-03-20T17:55:01+01:00</time>
      </trkpt>
      <trkpt lat="44.72842" lon="5.25264">
        <ele>543</ele>
        <time>2021-03-20T17:55:06+01:00</time>
      </trkpt>
      <trkpt lat="44.7287" lon="5.25288">
        <ele>543</ele>
        <time>2021-03-20T17:55:11+01:00</time>
      </trkpt>
      <trkpt lat="44.72882" lon="5.2529">
        <ele>545</ele>
        <time>2021-03-20T17:55:16+01:00</time>
      </trkpt>
      <trkpt lat="44.72899" lon="5.25291">
        <ele>548</ele>
        <time>2021-03-20T17:55:21+01:00</time>
      </trkpt>
      <trkpt lat="44.72896" lon="5.2528">
        <ele>551</ele>
        <time>2021-03-20T17:55:26+01:00</time>
      </trkpt>
      <trkpt lat="44.72881" lon="5.25261">
        <ele>553</ele>
        <time>2021-03-20T17:55:31+01:00</time>
      </trkpt>
      <trkpt lat="44.72874" lon="5.25233">
        <ele>558</ele>
        <time>2021-03-20T17:55:36+01:00</time>
      </trkpt>
      <trkpt lat="44.72863" lon="5.25184">
        <ele>565</ele>
        <time>2021-03-20T17:55:41+01:00</time>
      </trkpt>
      <trkpt lat="44.72851" lon="5.25158">
        <ele>568</ele>
        <time>2021-03-20T17:55:46+01:00</time>
      </trkpt>
      <trkpt lat="44.72839" lon="5.25125">
        <ele>571</ele>
        <time>2021-03-20T17:55:51+01:00</time>
      </trkpt>
      <trkpt lat="44.72831" lon="5.25102">
        <ele>573</ele>
        <time>2021-03-20T17:55:56+01:00</time>
      </trkpt>
      <trkpt lat="44.72813" lon="5.25069">
        <ele>573</ele>
        <time>2021-03-20T17:56:01+01:00</time>
      </trkpt>
      <trkpt lat="44.72813" lon="5.25059">
        <ele>576</ele>
        <time>2021-03-20T17:56:06+01:00</time>
      </trkpt>
      <trkpt lat="44.72818" lon="5.25055">
        <ele>578</ele>
        <time>2021-03-20T17:56:11+01:00</time>
      </trkpt>
      <trkpt lat="44.72856" lon="5.25059">
        <ele>588</ele>
        <time>2021-03-20T17:56:16+01:00</time>
      </trkpt>
      <trkpt lat="44.72898" lon="5.25073">
        <ele>596</ele>
        <time>2021-03-20T17:56:21+01:00</time>
      </trkpt>
      <trkpt lat="44.72916" lon="5.25079">
        <ele>599</ele>
        <time>2021-03-20T17:56:26+01:00</time>
      </trkpt>
      <trkpt lat="44.72934" lon="5.2509">
        <ele>602</ele>
        <time>2021-03-20T17:56:31+01:00</time>
      </trkpt>
      <trkpt lat="44.72968" lon="5.25114">
        <ele>608</ele>
        <time>2021-03-20T17:56:36+01:00</time>
      </trkpt>
      <trkpt lat="44.73015" lon="5.25151">
        <ele>615</ele>
        <time>2021-03-20T17:56:41+01:00</time>
      </trkpt>
      <trkpt lat="44.73071" lon="5.252">
        <ele>627</ele>
        <time>2021-03-20T17:56:46+01:00</time>
      </trkpt>
      <trkpt lat="44.73132" lon="5.25261">
        <ele>633</ele>
        <time>2021-03-20T17:56:51+01:00</time>
      </trkpt>
      <trkpt lat="44.73162" lon="5.25265">
        <ele>641</ele>
        <time>2021-03-20T17:56:56+01:00</time>
      </trkpt>
      <trkpt lat="44.73185" lon="5.25267">
        <ele>647</ele>
        <time>2021-03-20T17:57:01+01:00</time>
      </trkpt>
      <trkpt lat="44.73205" lon="5.2527">
        <ele>650</ele>
        <time>2021-03-20T17:57:06+01:00</time>
      </trkpt>
      <trkpt lat="44.73175" lon="5.25243">
        <ele>653</ele>
        <time>2021-03-20T17:57:11+01:00</time>
      </trkpt>
      <trkpt lat="44.73159" lon="5.25226">
        <ele>652</ele>
        <time>2021-03-20T17:57:16+01:00</time>
      </trkpt>
      <trkpt lat="44.73153" lon="5.25184">
        <ele>661</ele>
        <time>2021-03-20T17:57:21+01:00</time>
      </trkpt>
      <trkpt lat="44.73147" lon="5.25131">
        <ele>672</ele>
        <time>2021-03-20T17:57:26+01:00</time>
      </trkpt>
      <trkpt lat="44.73116" lon="5.25062">
        <ele>676</ele>
        <time>2021-03-20T17:57:31+01:00</time>
      </trkpt>
      <trkpt lat="44.73084" lon="5.24952">
        <ele>689</ele>
        <time>2021-03-20T17:57:36+01:00</time>
      </trkpt>
      <trkpt lat="44.73074" lon="5.24904">
        <ele>697</ele>
        <time>2021-03-20T17:57:41+01:00</time>
      </trkpt>
      <trkpt lat="44.73037" lon="5.24851">
        <ele>701</ele>
        <time>2021-03-20T17:57:46+01:00</time>
      </trkpt>
      <trkpt lat="44.72998" lon="5.24815">
        <ele>702</ele>
        <time>2021-03-20T17:57:51+01:00</time>
      </trkpt>
      <trkpt lat="44.72948" lon="5.24755">
        <ele>705</ele>
        <time>2021-03-20T17:57:56+01:00</time>
      </trkpt>
      <trkpt lat="44.72924" lon="5.24705">
        <ele>715</ele>
        <time>2021-03-20T17:58:01+01:00</time>
      </trkpt>
      <trkpt lat="44.7297" lon="5.24732">
        <ele>722</ele>
        <time>2021-03-20T17:58:06+01:00</time>
      </trkpt>
      <trkpt lat="44.7301" lon="5.2475">
        <ele>731</ele>
        <time>2021-03-20T17:58:11+01:00</time>
      </trkpt>
      <trkpt lat="44.73079" lon="5.24756">
        <ele>751</ele>
        <time>2021-03-20T17:58:16+01:00</time>
      </trkpt>
      <trkpt lat="44.7314" lon="5.24787">
        <ele>764</ele>
        <time>2021-03-20T17:58:21+01:00</time>
      </trkpt>
      <trkpt lat="44.73156" lon="5.24809">
        <ele>764</ele>
        <time>2021-03-20T17:58:26+01:00</time>
      </trkpt>
      <trkpt lat="44.73177" lon="5.24849">
        <ele>764</ele>
        <time>2021-03-20T17:58:31+01:00</time>
      </trkpt>
      <trkpt lat="44.73215" lon="5.24911">
        <ele>768</ele>
        <time>2021-03-20T17:58:36+01:00</time>
      </trkpt>
      <trkpt lat="44.73258" lon="5.24964">
        <ele>777</ele>
        <time>2021-03-20T17:58:41+01:00</time>
      </trkpt>
      <trkpt lat="44.7329" lon="5.24999">
        <ele>785</ele>
        <time>2021-03-20T17:58:46+01:00</time>
      </trkpt>
      <trkpt lat="44.73315" lon="5.25029">
        <ele>787</ele>
        <time>2021-03-20T17:58:51+01:00</time>
      </trkpt>
      <trkpt lat="44.73327" lon="5.25056">
        <ele>783</ele>
        <time>2021-03-20T17:58:56+01:00</time>
      </trkpt>
      <trkpt lat="44.73354" lon="5.2508">
        <ele>783</ele>
        <time>2021-03-20T17:59:01+01:00</time>
      </trkpt>
      <trkpt lat="44.73385" lon="5.25084">
        <ele>792</ele>
        <time>2021-03-20T17:59:06+01:00</time>
      </trkpt>
      <trkpt lat="44.7341" lon="5.25097">
        <ele>792</ele>
        <time>2021-03-20T17:59:11+01:00</time>
      </trkpt>
      <trkpt lat="44.73446" lon="5.25097">
        <ele>797</ele>
        <time>2021-03-20T17:59:16+01:00</time>
      </trkpt>
      <trkpt lat="44.73488" lon="5.2508">
        <ele>809</ele>
        <time>2021-03-20T17:59:21+01:00</time>
      </trkpt>
      <trkpt lat="44.73509" lon="5.25063">
        <ele>812</ele>
        <time>2021-03-20T17:59:26+01:00</time>
      </trkpt>
      <trkpt lat="44.73534" lon="5.25053">
        <ele>814</ele>
        <time>2021-03-20T17:59:31+01:00</time>
      </trkpt>
      <trkpt lat="44.73615" lon="5.25185">
        <ele>809</ele>
        <time>2021-03-20T17:59:36+01:00</time>
      </trkpt>
      <trkpt lat="44.7372" lon="5.25316">
        <ele>814</ele>
        <time>2021-03-20T17:59:41+01:00</time>
      </trkpt>
      <trkpt lat="44.73646" lon="5.25223">
        <ele>812</ele>
        <time>2021-03-20T17:59:46+01:00</time>
      </trkpt>
      <trkpt lat="44.73585" lon="5.25129">
        <ele>814</ele>
        <time>2021-03-20T17:59:51+01:00</time>
      </trkpt>
      <trkpt lat="44.73548" lon="5.25071">
        <ele>814</ele>
        <time>2021-03-20T17:59:56+01:00</time>
      </trkpt>
      <trkpt lat="44.73537" lon="5.2505">
        <ele>814</ele>
        <time>2021-03-20T18:00:01+01:00</time>
      </trkpt>
      <trkpt lat="44.73537" lon="5.25018">
        <ele>815</ele>
        <time>2021-03-20T18:00:06+01:00</time>
      </trkpt>
      <trkpt lat="44.73515" lon="5.25017">
        <ele>816</ele>
        <time>2021-03-20T18:00:11+01:00</time>
      </trkpt>
      <trkpt lat="44.7349" lon="5.25009">
        <ele>819</ele>
        <time>2021-03-20T18:00:16+01:00</time>
      </trkpt>
      <trkpt lat="44.7346" lon="5.24997">
        <ele>826</ele>
        <time>2021-03-20T18:00:21+01:00</time>
      </trkpt>
      <trkpt lat="44.73428" lon="5.24961">
        <ele>831</ele>
        <time>2021-03-20T18:00:26+01:00</time>
      </trkpt>
      <trkpt lat="44.73385" lon="5.24906">
        <ele>835</ele>
        <time>2021-03-20T18:00:31+01:00</time>
      </trkpt>
      <trkpt lat="44.73388" lon="5.24836">
        <ele>840</ele>
        <time>2021-03-20T18:00:36+01:00</time>
      </trkpt>
      <trkpt lat="44.7339" lon="5.24794">
        <ele>844</ele>
        <time>2021-03-20T18:00:41+01:00</time>
      </trkpt>
      <trkpt lat="44.73396" lon="5.24754">
        <ele>846</ele>
        <time>2021-03-20T18:00:46+01:00</time>
      </trkpt>
      <trkpt lat="44.734" lon="5.24697">
        <ele>841</ele>
        <time>2021-03-20T18:00:51+01:00</time>
      </trkpt>
      <trkpt lat="44.73391" lon="5.24658">
        <ele>844</ele>
        <time>2021-03-20T18:00:56+01:00</time>
      </trkpt>
      <trkpt lat="44.73367" lon="5.2461">
        <ele>853</ele>
        <time>2021-03-20T18:01:01+01:00</time>
      </trkpt>
      <trkpt lat="44.73347" lon="5.24586">
        <ele>864</ele>
        <time>2021-03-20T18:01:06+01:00</time>
      </trkpt>
      <trkpt lat="44.73334" lon="5.24546">
        <ele>871</ele>
        <time>2021-03-20T18:01:11+01:00</time>
      </trkpt>
      <trkpt lat="44.73336" lon="5.24485">
        <ele>869</ele>
        <time>2021-03-20T18:01:16+01:00</time>
      </trkpt>
      <trkpt lat="44.73353" lon="5.24447">
        <ele>861</ele>
        <time>2021-03-20T18:01:21+01:00</time>
      </trkpt>
      <trkpt lat="44.73348" lon="5.24433">
        <ele>864</ele>
        <time>2021-03-20T18:01:26+01:00</time>
      </trkpt>
      <trkpt lat="44.73338" lon="5.2442">
        <ele>869</ele>
        <time>2021-03-20T18:01:31+01:00</time>
      </trkpt>
      <trkpt lat="44.7333" lon="5.24437">
        <ele>872</ele>
        <time>2021-03-20T18:01:36+01:00</time>
      </trkpt>
      <trkpt lat="44.73325" lon="5.24469">
        <ele>874</ele>
        <time>2021-03-20T18:01:41+01:00</time>
      </trkpt>
      <trkpt lat="44.73311" lon="5.24481">
        <ele>879</ele>
        <time>2021-03-20T18:01:46+01:00</time>
      </trkpt>
      <trkpt lat="44.73305" lon="5.24459">
        <ele>881</ele>
        <time>2021-03-20T18:01:51+01:00</time>
      </trkpt>
      <trkpt lat="44.73294" lon="5.24439">
        <ele>885</ele>
        <time>2021-03-20T18:01:56+01:00</time>
      </trkpt>
      <trkpt lat="44.7327" lon="5.24404">
        <ele>893</ele>
        <time>2021-03-20T18:02:01+01:00</time>
      </trkpt>
      <trkpt lat="44.7325" lon="5.24371">
        <ele>899</ele>
        <time>2021-03-20T18:02:06+01:00</time>
      </trkpt>
      <trkpt lat="44.73231" lon="5.24344">
        <ele>904</ele>
        <time>2021-03-20T18:02:11+01:00</time>
      </trkpt>
      <trkpt lat="44.73231" lon="5.2437">
        <ele>904</ele>
        <time>2021-03-20T18:02:16+01:00</time>
      </trkpt>
      <trkpt lat="44.73245" lon="5.24422">
        <ele>902</ele>
        <time>2021-03-20T18:02:21+01:00</time>
      </trkpt>
      <trkpt lat="44.73247" lon="5.24454">
        <ele>902</ele>
        <time>2021-03-20T18:02:26+01:00</time>
      </trkpt>
      <trkpt lat="44.73246" lon="5.24479">
        <ele>902</ele>
        <time>2021-03-20T18:02:31+01:00</time>
      </trkpt>
      <trkpt lat="44.73239" lon="5.24504">
        <ele>901</ele>
        <time>2021-03-20T18:02:36+01:00</time>
      </trkpt>
      <trkpt lat="44.73229" lon="5.24514">
        <ele>899</ele>
        <time>2021-03-20T18:02:41+01:00</time>
      </trkpt>
      <trkpt lat="44.73217" lon="5.24503">
        <ele>901</ele>
        <time>2021-03-20T18:02:46+01:00</time>
      </trkpt>
      <trkpt lat="44.73201" lon="5.24475">
        <ele>904</ele>
        <time>2021-03-20T18:02:51+01:00</time>
      </trkpt>
      <trkpt lat="44.73172" lon="5.24438">
        <ele>914</ele>
        <time>2021-03-20T18:02:56+01:00</time>
      </trkpt>
      <trkpt lat="44.7314" lon="5.24409">
        <ele>921</ele>
        <time>2021-03-20T18:03:01+01:00</time>
      </trkpt>
      <trkpt lat="44.73114" lon="5.24385">
        <ele>927</ele>
        <time>2021-03-20T18:03:06+01:00</time>
      </trkpt>
      <trkpt lat="44.73103" lon="5.24372">
        <ele>931</ele>
        <time>2021-03-20T18:03:11+01:00</time>
      </trkpt>
      <trkpt lat="44.73092" lon="5.24348">
        <ele>938</ele>
        <time>2021-03-20T18:03:16+01:00</time>
      </trkpt>
      <trkpt lat="44.73079" lon="5.24334">
        <ele>942</ele>
        <time>2021-03-20T18:03:21+01:00</time>
      </trkpt>
      <trkpt lat="44.7306" lon="5.24323">
        <ele>942</ele>
        <time>2021-03-20T18:03:26+01:00</time>
      </trkpt>
      <trkpt lat="44.73007" lon="5.24301">
        <ele>944</ele>
        <time>2021-03-20T18:03:31+01:00</time>
      </trkpt>
      <trkpt lat="44.72975" lon="5.24266">
        <ele>944</ele>
        <time>2021-03-20T18:03:36+01:00</time>
      </trkpt>
      <trkpt lat="44.7297" lon="5.24231">
        <ele>948</ele>
        <time>2021-03-20T18:03:41+01:00</time>
      </trkpt>
      <trkpt lat="44.72973" lon="5.24193">
        <ele>953</ele>
        <time>2021-03-20T18:03:46+01:00</time>
      </trkpt>
      <trkpt lat="44.72992" lon="5.24113">
        <ele>964</ele>
        <time>2021-03-20T18:03:51+01:00</time>
      </trkpt>
      <trkpt lat="44.72978" lon="5.24055">
        <ele>967</ele>
        <time>2021-03-20T18:03:56+01:00</time>
      </trkpt>
      <trkpt lat="44.7296" lon="5.24043">
        <ele>968</ele>
        <time>2021-03-20T18:04:01+01:00</time>
      </trkpt>
      <trkpt lat="44.72937" lon="5.24031">
        <ele>968</ele>
        <time>2021-03-20T18:04:06+01:00</time>
      </trkpt>
      <trkpt lat="44.72903" lon="5.24017">
        <ele>969</ele>
        <time>2021-03-20T18:04:11+01:00</time>
      </trkpt>
      <trkpt lat="44.72889" lon="5.23993">
        <ele>973</ele>
        <time>2021-03-20T18:04:16+01:00</time>
      </trkpt>
      <trkpt lat="44.72877" lon="5.23971">
        <ele>980</ele>
        <time>2021-03-20T18:04:21+01:00</time>
      </trkpt>
      <trkpt lat="44.72848" lon="5.23978">
        <ele>974</ele>
        <time>2021-03-20T18:04:26+01:00</time>
      </trkpt>
      <trkpt lat="44.72821" lon="5.23973">
        <ele>972</ele>
        <time>2021-03-20T18:04:31+01:00</time>
      </trkpt>
      <trkpt lat="44.72787" lon="5.23951">
        <ele>975</ele>
        <time>2021-03-20T18:04:36+01:00</time>
      </trkpt>
      <trkpt lat="44.72762" lon="5.23923">
        <ele>982</ele>
        <time>2021-03-20T18:04:41+01:00</time>
      </trkpt>
      <trkpt lat="44.72732" lon="5.23909">
        <ele>981</ele>
        <time>2021-03-20T18:04:46+01:00</time>
      </trkpt>
      <trkpt lat="44.72719" lon="5.23911">
        <ele>979</ele>
        <time>2021-03-20T18:04:51+01:00</time>
      </trkpt>
      <trkpt lat="44.72706" lon="5.23907">
        <ele>978</ele>
        <time>2021-03-20T18:04:56+01:00</time>
      </trkpt>
      <trkpt lat="44.72678" lon="5.23896">
        <ele>974</ele>
        <time>2021-03-20T18:05:01+01:00</time>
      </trkpt>
      <trkpt lat="44.72692" lon="5.23874">
        <ele>979</ele>
        <time>2021-03-20T18:05:06+01:00</time>
      </trkpt>
      <trkpt lat="44.7271" lon="5.23844">
        <ele>988</ele>
        <time>2021-03-20T18:05:11+01:00</time>
      </trkpt>
      <trkpt lat="44.72708" lon="5.23797">
        <ele>982</ele>
        <time>2021-03-20T18:05:16+01:00</time>
      </trkpt>
      <trkpt lat="44.72765" lon="5.23733">
        <ele>997</ele>
        <time>2021-03-20T18:05:21+01:00</time>
      </trkpt>
      <trkpt lat="44.72832" lon="5.237">
        <ele>1017</ele>
        <time>2021-03-20T18:05:26+01:00</time>
      </trkpt>
      <trkpt lat="44.7288" lon="5.23668">
        <ele>1026</ele>
        <time>2021-03-20T18:05:31+01:00</time>
      </trkpt>
      <trkpt lat="44.72983" lon="5.23509">
        <ele>1044</ele>
        <time>2021-03-20T18:05:36+01:00</time>
      </trkpt>
      <trkpt lat="44.73019" lon="5.2345">
        <ele>1063</ele>
        <time>2021-03-20T18:05:41+01:00</time>
      </trkpt>
      <trkpt lat="44.73039" lon="5.23406">
        <ele>1072</ele>
        <time>2021-03-20T18:05:46+01:00</time>
      </trkpt>
      <trkpt lat="44.73043" lon="5.23388">
        <ele>1073</ele>
        <time>2021-03-20T18:05:51+01:00</time>
      </trkpt>
      <trkpt lat="44.7304" lon="5.23373">
        <ele>1072</ele>
        <time>2021-03-20T18:05:56+01:00</time>
      </trkpt>
      <trkpt lat="44.73035" lon="5.23337">
        <ele>1071</ele>
        <time>2021-03-20T18:06:01+01:00</time>
      </trkpt>
      <trkpt lat="44.73005" lon="5.23312">
        <ele>1066</ele>
        <time>2021-03-20T18:06:06+01:00</time>
      </trkpt>
      <trkpt lat="44.72942" lon="5.23303">
        <ele>1056</ele>
        <time>2021-03-20T18:06:11+01:00</time>
      </trkpt>
      <trkpt lat="44.72923" lon="5.23297">
        <ele>1055</ele>
        <time>2021-03-20T18:06:16+01:00</time>
      </trkpt>
      <trkpt lat="44.72907" lon="5.23283">
        <ele>1053</ele>
        <time>2021-03-20T18:06:21+01:00</time>
      </trkpt>
      <trkpt lat="44.72923" lon="5.23297">
        <ele>1055</ele>
        <time>2021-03-20T18:06:26+01:00</time>
      </trkpt>
      <trkpt lat="44.72951" lon="5.23306">
        <ele>1057</ele>
        <time>2021-03-20T18:06:31+01:00</time>
      </trkpt>
      <trkpt lat="44.72985" lon="5.23309">
        <ele>1063</ele>
        <time>2021-03-20T18:06:36+01:00</time>
      </trkpt>
      <trkpt lat="44.73008" lon="5.23314">
        <ele>1067</ele>
        <time>2021-03-20T18:06:41+01:00</time>
      </trkpt>
      <trkpt lat="44.73022" lon="5.23326">
        <ele>1069</ele>
        <time>2021-03-20T18:06:46+01:00</time>
      </trkpt>
      <trkpt lat="44.73036" lon="5.2334">
        <ele>1071</ele>
        <time>2021-03-20T18:06:51+01:00</time>
      </trkpt>
      <trkpt lat="44.73044" lon="5.23385">
        <ele>1073</ele>
        <time>2021-03-20T18:06:56+01:00</time>
      </trkpt>
      <trkpt lat="44.73034" lon="5.23421">
        <ele>1070</ele>
        <time>2021-03-20T18:07:01+01:00</time>
      </trkpt>
      <trkpt lat="44.7303" lon="5.23429">
        <ele>1069</ele>
        <time>2021-03-20T18:07:06+01:00</time>
      </trkpt>
      <trkpt lat="44.73028" lon="5.23434">
        <ele>1068</ele>
        <time>2021-03-20T18:07:11+01:00</time>
      </trkpt>
      <trkpt lat="44.7293" lon="5.23594">
        <ele>1026</ele>
        <time>2021-03-20T18:07:16+01:00</time>
      </trkpt>
      <trkpt lat="44.72879" lon="5.2367">
        <ele>1026</ele>
        <time>2021-03-20T18:07:21+01:00</time>
      </trkpt>
      <trkpt lat="44.72813" lon="5.23709">
        <ele>1012</ele>
        <time>2021-03-20T18:07:26+01:00</time>
      </trkpt>
      <trkpt lat="44.7276" lon="5.23739">
        <ele>997</ele>
        <time>2021-03-20T18:07:31+01:00</time>
      </trkpt>
      <trkpt lat="44.72718" lon="5.23779">
        <ele>983</ele>
        <time>2021-03-20T18:07:36+01:00</time>
      </trkpt>
      <trkpt lat="44.7271" lon="5.23799">
        <ele>983</ele>
        <time>2021-03-20T18:07:41+01:00</time>
      </trkpt>
      <trkpt lat="44.72706" lon="5.23825">
        <ele>986</ele>
        <time>2021-03-20T18:07:46+01:00</time>
      </trkpt>
      <trkpt lat="44.72705" lon="5.23859">
        <ele>984</ele>
        <time>2021-03-20T18:07:51+01:00</time>
      </trkpt>
      <trkpt lat="44.72675" lon="5.23896">
        <ele>974</ele>
        <time>2021-03-20T18:07:56+01:00</time>
      </trkpt>
      <trkpt lat="44.72664" lon="5.23898">
        <ele>972</ele>
        <time>2021-03-20T18:08:01+01:00</time>
      </trkpt>
      <trkpt lat="44.7265" lon="5.23892">
        <ele>969</ele>
        <time>2021-03-20T18:08:06+01:00</time>
      </trkpt>
      <trkpt lat="44.72608" lon="5.23926">
        <ele>965</ele>
        <time>2021-03-20T18:08:11+01:00</time>
      </trkpt>
      <trkpt lat="44.72575" lon="5.23957">
        <ele>959</ele>
        <time>2021-03-20T18:08:16+01:00</time>
      </trkpt>
      <trkpt lat="44.72545" lon="5.23997">
        <ele>954</ele>
        <time>2021-03-20T18:08:21+01:00</time>
      </trkpt>
      <trkpt lat="44.72524" lon="5.24054">
        <ele>948</ele>
        <time>2021-03-20T18:08:26+01:00</time>
      </trkpt>
      <trkpt lat="44.7251" lon="5.24097">
        <ele>944</ele>
        <time>2021-03-20T18:08:31+01:00</time>
      </trkpt>
      <trkpt lat="44.72499" lon="5.24145">
        <ele>938</ele>
        <time>2021-03-20T18:08:36+01:00</time>
      </trkpt>
      <trkpt lat="44.72499" lon="5.24192">
        <ele>936</ele>
        <time>2021-03-20T18:08:41+01:00</time>
      </trkpt>
      <trkpt lat="44.72493" lon="5.24222">
        <ele>935</ele>
        <time>2021-03-20T18:08:46+01:00</time>
      </trkpt>
      <trkpt lat="44.72481" lon="5.24263">
        <ele>931</ele>
        <time>2021-03-20T18:08:51+01:00</time>
      </trkpt>
      <trkpt lat="44.72467" lon="5.24316">
        <ele>920</ele>
        <time>2021-03-20T18:08:56+01:00</time>
      </trkpt>
      <trkpt lat="44.7247" lon="5.24336">
        <ele>919</ele>
        <time>2021-03-20T18:09:01+01:00</time>
      </trkpt>
      <trkpt lat="44.7249" lon="5.24342">
        <ele>923</ele>
        <time>2021-03-20T18:09:06+01:00</time>
      </trkpt>
      <trkpt lat="44.72515" lon="5.24321">
        <ele>929</ele>
        <time>2021-03-20T18:09:11+01:00</time>
      </trkpt>
      <trkpt lat="44.72516" lon="5.24312">
        <ele>929</ele>
        <time>2021-03-20T18:09:16+01:00</time>
      </trkpt>
      <trkpt lat="44.72496" lon="5.24336">
        <ele>931</ele>
        <time>2021-03-20T18:09:21+01:00</time>
      </trkpt>
      <trkpt lat="44.72476" lon="5.24342">
        <ele>917</ele>
        <time>2021-03-20T18:09:26+01:00</time>
      </trkpt>
      <trkpt lat="44.72464" lon="5.24306">
        <ele>920</ele>
        <time>2021-03-20T18:09:31+01:00</time>
      </trkpt>
      <trkpt lat="44.72483" lon="5.2425">
        <ele>932</ele>
        <time>2021-03-20T18:09:36+01:00</time>
      </trkpt>
      <trkpt lat="44.72495" lon="5.24194">
        <ele>935</ele>
        <time>2021-03-20T18:09:41+01:00</time>
      </trkpt>
      <trkpt lat="44.72504" lon="5.24115">
        <ele>942</ele>
        <time>2021-03-20T18:09:46+01:00</time>
      </trkpt>
      <trkpt lat="44.72521" lon="5.24054">
        <ele>948</ele>
        <time>2021-03-20T18:09:51+01:00</time>
      </trkpt>
      <trkpt lat="44.72535" lon="5.24013">
        <ele>952</ele>
        <time>2021-03-20T18:09:56+01:00</time>
      </trkpt>
      <trkpt lat="44.72553" lon="5.23976">
        <ele>955</ele>
        <time>2021-03-20T18:10:01+01:00</time>
      </trkpt>
      <trkpt lat="44.72598" lon="5.2394">
        <ele>963</ele>
        <time>2021-03-20T18:10:06+01:00</time>
      </trkpt>
      <trkpt lat="44.72648" lon="5.23892">
        <ele>969</ele>
        <time>2021-03-20T18:10:11+01:00</time>
      </trkpt>
      <trkpt lat="44.72649" lon="5.23876">
        <ele>968</ele>
        <time>2021-03-20T18:10:16+01:00</time>
      </trkpt>
      <trkpt lat="44.72672" lon="5.2384">
        <ele>975</ele>
        <time>2021-03-20T18:10:21+01:00</time>
      </trkpt>
      <trkpt lat="44.72678" lon="5.23814">
        <ele>972</ele>
        <time>2021-03-20T18:10:26+01:00</time>
      </trkpt>
      <trkpt lat="44.72676" lon="5.238">
        <ele>968</ele>
        <time>2021-03-20T18:10:31+01:00</time>
      </trkpt>
      <trkpt lat="44.72677" lon="5.23777">
        <ele>962</ele>
        <time>2021-03-20T18:10:36+01:00</time>
      </trkpt>
      <trkpt lat="44.72682" lon="5.23756">
        <ele>959</ele>
        <time>2021-03-20T18:10:41+01:00</time>
      </trkpt>
      <trkpt lat="44.72725" lon="5.23698">
        <ele>965</ele>
        <time>2021-03-20T18:10:46+01:00</time>
      </trkpt>
      <trkpt lat="44.72761" lon="5.23632">
        <ele>963</ele>
        <time>2021-03-20T18:10:51+01:00</time>
      </trkpt>
      <trkpt lat="44.72792" lon="5.2357">
        <ele>955</ele>
        <time>2021-03-20T18:10:56+01:00</time>
      </trkpt>
      <trkpt lat="44.72813" lon="5.23522">
        <ele>956</ele>
        <time>2021-03-20T18:11:01+01:00</time>
      </trkpt>
      <trkpt lat="44.72822" lon="5.23499">
        <ele>956</ele>
        <time>2021-03-20T18:11:06+01:00</time>
      </trkpt>
      <trkpt lat="44.72819" lon="5.23489">
        <ele>957</ele>
        <time>2021-03-20T18:11:11+01:00</time>
      </trkpt>
      <trkpt lat="44.7281" lon="5.23481">
        <ele>953</ele>
        <time>2021-03-20T18:11:16+01:00</time>
      </trkpt>
      <trkpt lat="44.72787" lon="5.23439">
        <ele>947</ele>
        <time>2021-03-20T18:11:21+01:00</time>
      </trkpt>
      <trkpt lat="44.7276" lon="5.23395">
        <ele>939</ele>
        <time>2021-03-20T18:11:26+01:00</time>
      </trkpt>
      <trkpt lat="44.72731" lon="5.23359">
        <ele>934</ele>
        <time>2021-03-20T18:11:31+01:00</time>
      </trkpt>
      <trkpt lat="44.72699" lon="5.23321">
        <ele>930</ele>
        <time>2021-03-20T18:11:36+01:00</time>
      </trkpt>
      <trkpt lat="44.726" lon="5.23218">
        <ele>915</ele>
        <time>2021-03-20T18:11:41+01:00</time>
      </trkpt>
      <trkpt lat="44.72544" lon="5.23179">
        <ele>908</ele>
        <time>2021-03-20T18:11:46+01:00</time>
      </trkpt>
      <trkpt lat="44.72532" lon="5.23155">
        <ele>913</ele>
        <time>2021-03-20T18:11:51+01:00</time>
      </trkpt>
      <trkpt lat="44.72503" lon="5.23101">
        <ele>922</ele>
        <time>2021-03-20T18:11:56+01:00</time>
      </trkpt>
      <trkpt lat="44.72483" lon="5.23058">
        <ele>926</ele>
        <time>2021-03-20T18:12:01+01:00</time>
      </trkpt>
      <trkpt lat="44.72541" lon="5.23013">
        <ele>935</ele>
        <time>2021-03-20T18:12:06+01:00</time>
      </trkpt>
      <trkpt lat="44.72375" lon="5.22987">
        <ele>909</ele>
        <time>2021-03-20T18:12:11+01:00</time>
      </trkpt>
      <trkpt lat="44.72296" lon="5.23024">
        <ele>901</ele>
        <time>2021-03-20T18:12:16+01:00</time>
      </trkpt>
      <trkpt lat="44.72235" lon="5.23058">
        <ele>897</ele>
        <time>2021-03-20T18:12:21+01:00</time>
      </trkpt>
      <trkpt lat="44.72154" lon="5.23009">
        <ele>873</ele>
        <time>2021-03-20T18:12:26+01:00</time>
      </trkpt>
      <trkpt lat="44.72117" lon="5.2299">
        <ele>864</ele>
        <time>2021-03-20T18:12:31+01:00</time>
      </trkpt>
      <trkpt lat="44.72032" lon="5.23026">
        <ele>868</ele>
        <time>2021-03-20T18:12:36+01:00</time>
      </trkpt>
      <trkpt lat="44.71959" lon="5.23037">
        <ele>866</ele>
        <time>2021-03-20T18:12:41+01:00</time>
      </trkpt>
      <trkpt lat="44.7189" lon="5.23071">
        <ele>866</ele>
        <time>2021-03-20T18:12:46+01:00</time>
      </trkpt>
      <trkpt lat="44.71825" lon="5.23093">
        <ele>857</ele>
        <time>2021-03-20T18:12:51+01:00</time>
      </trkpt>
      <trkpt lat="44.71727" lon="5.23054">
        <ele>854</ele>
        <time>2021-03-20T18:12:56+01:00</time>
      </trkpt>
      <trkpt lat="44.71654" lon="5.23093">
        <ele>860</ele>
        <time>2021-03-20T18:13:01+01:00</time>
      </trkpt>
      <trkpt lat="44.71623" lon="5.23105">
        <ele>860</ele>
        <time>2021-03-20T18:13:06+01:00</time>
      </trkpt>
      <trkpt lat="44.71579" lon="5.23095">
        <ele>859</ele>
        <time>2021-03-20T18:13:11+01:00</time>
      </trkpt>
      <trkpt lat="44.71536" lon="5.23125">
        <ele>858</ele>
        <time>2021-03-20T18:13:16+01:00</time>
      </trkpt>
      <trkpt lat="44.71471" lon="5.23146">
        <ele>853</ele>
        <time>2021-03-20T18:13:21+01:00</time>
      </trkpt>
      <trkpt lat="44.71414" lon="5.23125">
        <ele>842</ele>
        <time>2021-03-20T18:13:26+01:00</time>
      </trkpt>
      <trkpt lat="44.71445" lon="5.23071">
        <ele>836</ele>
        <time>2021-03-20T18:13:31+01:00</time>
      </trkpt>
      <trkpt lat="44.71384" lon="5.23069">
        <ele>825</ele>
        <time>2021-03-20T18:13:36+01:00</time>
      </trkpt>
      <trkpt lat="44.71314" lon="5.2309">
        <ele>819</ele>
        <time>2021-03-20T18:13:41+01:00</time>
      </trkpt>
      <trkpt lat="44.71245" lon="5.23101">
        <ele>817</ele>
        <time>2021-03-20T18:13:46+01:00</time>
      </trkpt>
      <trkpt lat="44.71134" lon="5.23099">
        <ele>815</ele>
        <time>2021-03-20T18:13:51+01:00</time>
      </trkpt>
      <trkpt lat="44.71061" lon="5.2309">
        <ele>811</ele>
        <time>2021-03-20T18:13:56+01:00</time>
      </trkpt>
      <trkpt lat="44.71015" lon="5.23099">
        <ele>807</ele>
        <time>2021-03-20T18:14:01+01:00</time>
      </trkpt>
      <trkpt lat="44.70957" lon="5.23136">
        <ele>806</ele>
        <time>2021-03-20T18:14:06+01:00</time>
      </trkpt>
      <trkpt lat="44.70891" lon="5.23153">
        <ele>798</ele>
        <time>2021-03-20T18:14:11+01:00</time>
      </trkpt>
      <trkpt lat="44.70859" lon="5.23157">
        <ele>792</ele>
        <time>2021-03-20T18:14:16+01:00</time>
      </trkpt>
      <trkpt lat="44.70746" lon="5.23114">
        <ele>772</ele>
        <time>2021-03-20T18:14:21+01:00</time>
      </trkpt>
      <trkpt lat="44.70754" lon="5.23134">
        <ele>772</ele>
        <time>2021-03-20T18:14:26+01:00</time>
      </trkpt>
      <trkpt lat="44.70789" lon="5.23172">
        <ele>776</ele>
        <time>2021-03-20T18:14:31+01:00</time>
      </trkpt>
      <trkpt lat="44.7082" lon="5.23208">
        <ele>771</ele>
        <time>2021-03-20T18:14:36+01:00</time>
      </trkpt>
      <trkpt lat="44.70872" lon="5.23271">
        <ele>762</ele>
        <time>2021-03-20T18:14:41+01:00</time>
      </trkpt>
      <trkpt lat="44.709" lon="5.23303">
        <ele>753</ele>
        <time>2021-03-20T18:14:46+01:00</time>
      </trkpt>
      <trkpt lat="44.7092" lon="5.23296">
        <ele>763</ele>
        <time>2021-03-20T18:14:51+01:00</time>
      </trkpt>
      <trkpt lat="44.70936" lon="5.23309">
        <ele>760</ele>
        <time>2021-03-20T18:14:56+01:00</time>
      </trkpt>
      <trkpt lat="44.70948" lon="5.23325">
        <ele>755</ele>
        <time>2021-03-20T18:15:01+01:00</time>
      </trkpt>
      <trkpt lat="44.70968" lon="5.23343">
        <ele>752</ele>
        <time>2021-03-20T18:15:06+01:00</time>
      </trkpt>
      <trkpt lat="44.70981" lon="5.23352">
        <ele>750</ele>
        <time>2021-03-20T18:15:11+01:00</time>
      </trkpt>
      <trkpt lat="44.71004" lon="5.23369">
        <ele>748</ele>
        <time>2021-03-20T18:15:16+01:00</time>
      </trkpt>
      <trkpt lat="44.70989" lon="5.23372">
        <ele>743</ele>
        <time>2021-03-20T18:15:21+01:00</time>
      </trkpt>
      <trkpt lat="44.70974" lon="5.23368">
        <ele>741</ele>
        <time>2021-03-20T18:15:26+01:00</time>
      </trkpt>
      <trkpt lat="44.70951" lon="5.23359">
        <ele>739</ele>
        <time>2021-03-20T18:15:31+01:00</time>
      </trkpt>
      <trkpt lat="44.70932" lon="5.23343">
        <ele>742</ele>
        <time>2021-03-20T18:15:36+01:00</time>
      </trkpt>
      <trkpt lat="44.70954" lon="5.23381">
        <ele>729</ele>
        <time>2021-03-20T18:15:41+01:00</time>
      </trkpt>
      <trkpt lat="44.70969" lon="5.23394">
        <ele>726</ele>
        <time>2021-03-20T18:15:46+01:00</time>
      </trkpt>
      <trkpt lat="44.70986" lon="5.23407">
        <ele>725</ele>
        <time>2021-03-20T18:15:51+01:00</time>
      </trkpt>
      <trkpt lat="44.71022" lon="5.23417">
        <ele>725</ele>
        <time>2021-03-20T18:15:56+01:00</time>
      </trkpt>
      <trkpt lat="44.71058" lon="5.23419">
        <ele>726</ele>
        <time>2021-03-20T18:16:01+01:00</time>
      </trkpt>
      <trkpt lat="44.71087" lon="5.23423">
        <ele>726</ele>
        <time>2021-03-20T18:16:06+01:00</time>
      </trkpt>
      <trkpt lat="44.71115" lon="5.23431">
        <ele>722</ele>
        <time>2021-03-20T18:16:11+01:00</time>
      </trkpt>
      <trkpt lat="44.71146" lon="5.23442">
        <ele>717</ele>
        <time>2021-03-20T18:16:16+01:00</time>
      </trkpt>
      <trkpt lat="44.71177" lon="5.23448">
        <ele>716</ele>
        <time>2021-03-20T18:16:21+01:00</time>
      </trkpt>
      <trkpt lat="44.71204" lon="5.23458">
        <ele>716</ele>
        <time>2021-03-20T18:16:26+01:00</time>
      </trkpt>
      <trkpt lat="44.71223" lon="5.23471">
        <ele>714</ele>
        <time>2021-03-20T18:16:31+01:00</time>
      </trkpt>
      <trkpt lat="44.71236" lon="5.23483">
        <ele>711</ele>
        <time>2021-03-20T18:16:36+01:00</time>
      </trkpt>
      <trkpt lat="44.71254" lon="5.23501">
        <ele>707</ele>
        <time>2021-03-20T18:16:41+01:00</time>
      </trkpt>
      <trkpt lat="44.71274" lon="5.23513">
        <ele>704</ele>
        <time>2021-03-20T18:16:46+01:00</time>
      </trkpt>
      <trkpt lat="44.71298" lon="5.23516">
        <ele>704</ele>
        <time>2021-03-20T18:16:51+01:00</time>
      </trkpt>
      <trkpt lat="44.71323" lon="5.23519">
        <ele>705</ele>
        <time>2021-03-20T18:16:56+01:00</time>
      </trkpt>
      <trkpt lat="44.71377" lon="5.23528">
        <ele>700</ele>
        <time>2021-03-20T18:17:01+01:00</time>
      </trkpt>
      <trkpt lat="44.71402" lon="5.23526">
        <ele>700</ele>
        <time>2021-03-20T18:17:06+01:00</time>
      </trkpt>
      <trkpt lat="44.71415" lon="5.23526">
        <ele>699</ele>
        <time>2021-03-20T18:17:11+01:00</time>
      </trkpt>
      <trkpt lat="44.71455" lon="5.23557">
        <ele>682</ele>
        <time>2021-03-20T18:17:16+01:00</time>
      </trkpt>
      <trkpt lat="44.71524" lon="5.23588">
        <ele>665</ele>
        <time>2021-03-20T18:17:21+01:00</time>
      </trkpt>
      <trkpt lat="44.71591" lon="5.23618">
        <ele>651</ele>
        <time>2021-03-20T18:17:26+01:00</time>
      </trkpt>
      <trkpt lat="44.71629" lon="5.23631">
        <ele>642</ele>
        <time>2021-03-20T18:17:31+01:00</time>
      </trkpt>
      <trkpt lat="44.71677" lon="5.23631">
        <ele>638</ele>
        <time>2021-03-20T18:17:36+01:00</time>
      </trkpt>
      <trkpt lat="44.71734" lon="5.23648">
        <ele>627</ele>
        <time>2021-03-20T18:17:41+01:00</time>
      </trkpt>
      <trkpt lat="44.71751" lon="5.23657">
        <ele>622</ele>
        <time>2021-03-20T18:17:46+01:00</time>
      </trkpt>
      <trkpt lat="44.7178" lon="5.23647">
        <ele>629</ele>
        <time>2021-03-20T18:17:51+01:00</time>
      </trkpt>
      <trkpt lat="44.71797" lon="5.23647">
        <ele>630</ele>
        <time>2021-03-20T18:17:56+01:00</time>
      </trkpt>
      <trkpt lat="44.71812" lon="5.23679">
        <ele>623</ele>
        <time>2021-03-20T18:18:01+01:00</time>
      </trkpt>
      <trkpt lat="44.71832" lon="5.23703">
        <ele>621</ele>
        <time>2021-03-20T18:18:06+01:00</time>
      </trkpt>
      <trkpt lat="44.71842" lon="5.23721">
        <ele>620</ele>
        <time>2021-03-20T18:18:11+01:00</time>
      </trkpt>
      <trkpt lat="44.71841" lon="5.23741">
        <ele>616</ele>
        <time>2021-03-20T18:18:16+01:00</time>
      </trkpt>
      <trkpt lat="44.71825" lon="5.2375">
        <ele>611</ele>
        <time>2021-03-20T18:18:21+01:00</time>
      </trkpt>
      <trkpt lat="44.71792" lon="5.23755">
        <ele>605</ele>
        <time>2021-03-20T18:18:26+01:00</time>
      </trkpt>
      <trkpt lat="44.71779" lon="5.23763">
        <ele>603</ele>
        <time>2021-03-20T18:18:31+01:00</time>
      </trkpt>
      <trkpt lat="44.71754" lon="5.23796">
        <ele>600</ele>
        <time>2021-03-20T18:18:36+01:00</time>
      </trkpt>
      <trkpt lat="44.71742" lon="5.23812">
        <ele>598</ele>
        <time>2021-03-20T18:18:41+01:00</time>
      </trkpt>
      <trkpt lat="44.71716" lon="5.23825">
        <ele>590</ele>
        <time>2021-03-20T18:18:46+01:00</time>
      </trkpt>
      <trkpt lat="44.71665" lon="5.23865">
        <ele>569</ele>
        <time>2021-03-20T18:18:51+01:00</time>
      </trkpt>
      <trkpt lat="44.71658" lon="5.23914">
        <ele>563</ele>
        <time>2021-03-20T18:18:56+01:00</time>
      </trkpt>
      <trkpt lat="44.71634" lon="5.23962">
        <ele>555</ele>
        <time>2021-03-20T18:19:01+01:00</time>
      </trkpt>
      <trkpt lat="44.71606" lon="5.24012">
        <ele>543</ele>
        <time>2021-03-20T18:19:06+01:00</time>
      </trkpt>
      <trkpt lat="44.71596" lon="5.24038">
        <ele>541</ele>
        <time>2021-03-20T18:19:11+01:00</time>
      </trkpt>
      <trkpt lat="44.71589" lon="5.24051">
        <ele>539</ele>
        <time>2021-03-20T18:19:16+01:00</time>
      </trkpt>
      <trkpt lat="44.71576" lon="5.24054">
        <ele>533</ele>
        <time>2021-03-20T18:19:21+01:00</time>
      </trkpt>
      <trkpt lat="44.71563" lon="5.24082">
        <ele>528</ele>
        <time>2021-03-20T18:19:26+01:00</time>
      </trkpt>
      <trkpt lat="44.71565" lon="5.24105">
        <ele>532</ele>
        <time>2021-03-20T18:19:31+01:00</time>
      </trkpt>
      <trkpt lat="44.71557" lon="5.24124">
        <ele>530</ele>
        <time>2021-03-20T18:19:36+01:00</time>
      </trkpt>
      <trkpt lat="44.71565" lon="5.24155">
        <ele>538</ele>
        <time>2021-03-20T18:19:41+01:00</time>
      </trkpt>
      <trkpt lat="44.71562" lon="5.24164">
        <ele>537</ele>
        <time>2021-03-20T18:19:46+01:00</time>
      </trkpt>
      <trkpt lat="44.71552" lon="5.24178">
        <ele>534</ele>
        <time>2021-03-20T18:19:51+01:00</time>
      </trkpt>
      <trkpt lat="44.71545" lon="5.24204">
        <ele>534</ele>
        <time>2021-03-20T18:19:56+01:00</time>
      </trkpt>
      <trkpt lat="44.71543" lon="5.2424">
        <ele>539</ele>
        <time>2021-03-20T18:20:01+01:00</time>
      </trkpt>
      <trkpt lat="44.71539" lon="5.2426">
        <ele>540</ele>
        <time>2021-03-20T18:20:06+01:00</time>
      </trkpt>
      <trkpt lat="44.71521" lon="5.24284">
        <ele>533</ele>
        <time>2021-03-20T18:20:11+01:00</time>
      </trkpt>
      <trkpt lat="44.71513" lon="5.24315">
        <ele>533</ele>
        <time>2021-03-20T18:20:16+01:00</time>
      </trkpt>
      <trkpt lat="44.7151" lon="5.24351">
        <ele>536</ele>
        <time>2021-03-20T18:20:21+01:00</time>
      </trkpt>
      <trkpt lat="44.71512" lon="5.24374">
        <ele>538</ele>
        <time>2021-03-20T18:20:26+01:00</time>
      </trkpt>
      <trkpt lat="44.71509" lon="5.24399">
        <ele>538</ele>
        <time>2021-03-20T18:20:31+01:00</time>
      </trkpt>
      <trkpt lat="44.715" lon="5.24417">
        <ele>534</ele>
        <time>2021-03-20T18:20:36+01:00</time>
      </trkpt>
      <trkpt lat="44.71474" lon="5.2445">
        <ele>525</ele>
        <time>2021-03-20T18:20:41+01:00</time>
      </trkpt>
      <trkpt lat="44.71463" lon="5.24466">
        <ele>521</ele>
        <time>2021-03-20T18:20:46+01:00</time>
      </trkpt>
      <trkpt lat="44.71446" lon="5.24479">
        <ele>516</ele>
        <time>2021-03-20T18:20:51+01:00</time>
      </trkpt>
      <trkpt lat="44.71425" lon="5.24498">
        <ele>512</ele>
        <time>2021-03-20T18:20:56+01:00</time>
      </trkpt>
      <trkpt lat="44.71426" lon="5.24517">
        <ele>511</ele>
        <time>2021-03-20T18:21:01+01:00</time>
      </trkpt>
      <trkpt lat="44.71423" lon="5.24531">
        <ele>509</ele>
        <time>2021-03-20T18:21:06+01:00</time>
      </trkpt>
      <trkpt lat="44.71408" lon="5.24537">
        <ele>505</ele>
        <time>2021-03-20T18:21:11+01:00</time>
      </trkpt>
      <trkpt lat="44.71397" lon="5.24533">
        <ele>503</ele>
        <time>2021-03-20T18:21:16+01:00</time>
      </trkpt>
      <trkpt lat="44.71382" lon="5.24522">
        <ele>500</ele>
        <time>2021-03-20T18:21:21+01:00</time>
      </trkpt>
      <trkpt lat="44.71373" lon="5.24514">
        <ele>499</ele>
        <time>2021-03-20T18:21:26+01:00</time>
      </trkpt>
      <trkpt lat="44.71362" lon="5.24507">
        <ele>496</ele>
        <time>2021-03-20T18:21:31+01:00</time>
      </trkpt>
      <trkpt lat="44.71349" lon="5.24505">
        <ele>493</ele>
        <time>2021-03-20T18:21:36+01:00</time>
      </trkpt>
      <trkpt lat="44.71335" lon="5.2451">
        <ele>490</ele>
        <time>2021-03-20T18:21:41+01:00</time>
      </trkpt>
      <trkpt lat="44.71317" lon="5.24513">
        <ele>488</ele>
        <time>2021-03-20T18:21:46+01:00</time>
      </trkpt>
      <trkpt lat="44.71295" lon="5.24506">
        <ele>486</ele>
        <time>2021-03-20T18:21:51+01:00</time>
      </trkpt>
      <trkpt lat="44.71282" lon="5.24496">
        <ele>484</ele>
        <time>2021-03-20T18:21:56+01:00</time>
      </trkpt>
      <trkpt lat="44.71274" lon="5.24482">
        <ele>480</ele>
        <time>2021-03-20T18:22:01+01:00</time>
      </trkpt>
      <trkpt lat="44.71256" lon="5.24481">
        <ele>479</ele>
        <time>2021-03-20T18:22:06+01:00</time>
      </trkpt>
      <trkpt lat="44.71261" lon="5.24526">
        <ele>484</ele>
        <time>2021-03-20T18:22:11+01:00</time>
      </trkpt>
      <trkpt lat="44.71281" lon="5.24568">
        <ele>487</ele>
        <time>2021-03-20T18:22:16+01:00</time>
      </trkpt>
      <trkpt lat="44.71304" lon="5.24621">
        <ele>484</ele>
        <time>2021-03-20T18:22:21+01:00</time>
      </trkpt>
      <trkpt lat="44.7131" lon="5.24643">
        <ele>482</ele>
        <time>2021-03-20T18:22:26+01:00</time>
      </trkpt>
      <trkpt lat="44.71304" lon="5.24657">
        <ele>479</ele>
        <time>2021-03-20T18:22:31+01:00</time>
      </trkpt>
      <trkpt lat="44.71292" lon="5.24666">
        <ele>477</ele>
        <time>2021-03-20T18:22:36+01:00</time>
      </trkpt>
      <trkpt lat="44.71271" lon="5.24657">
        <ele>477</ele>
        <time>2021-03-20T18:22:41+01:00</time>
      </trkpt>
      <trkpt lat="44.71242" lon="5.24629">
        <ele>477</ele>
        <time>2021-03-20T18:22:46+01:00</time>
      </trkpt>
      <trkpt lat="44.71223" lon="5.24617">
        <ele>476</ele>
        <time>2021-03-20T18:22:51+01:00</time>
      </trkpt>
      <trkpt lat="44.71205" lon="5.24615">
        <ele>473</ele>
        <time>2021-03-20T18:22:56+01:00</time>
      </trkpt>
      <trkpt lat="44.71188" lon="5.24616">
        <ele>470</ele>
        <time>2021-03-20T18:23:01+01:00</time>
      </trkpt>
      <trkpt lat="44.71168" lon="5.2462">
        <ele>467</ele>
        <time>2021-03-20T18:23:06+01:00</time>
      </trkpt>
      <trkpt lat="44.71133" lon="5.24631">
        <ele>455</ele>
        <time>2021-03-20T18:23:11+01:00</time>
      </trkpt>
      <trkpt lat="44.71124" lon="5.24636">
        <ele>452</ele>
        <time>2021-03-20T18:23:16+01:00</time>
      </trkpt>
      <trkpt lat="44.71117" lon="5.24652">
        <ele>449</ele>
        <time>2021-03-20T18:23:21+01:00</time>
      </trkpt>
      <trkpt lat="44.71118" lon="5.24696">
        <ele>448</ele>
        <time>2021-03-20T18:23:26+01:00</time>
      </trkpt>
      <trkpt lat="44.71121" lon="5.24748">
        <ele>446</ele>
        <time>2021-03-20T18:23:31+01:00</time>
      </trkpt>
      <trkpt lat="44.71122" lon="5.24778">
        <ele>444</ele>
        <time>2021-03-20T18:23:36+01:00</time>
      </trkpt>
      <trkpt lat="44.71118" lon="5.24805">
        <ele>442</ele>
        <time>2021-03-20T18:23:41+01:00</time>
      </trkpt>
      <trkpt lat="44.71103" lon="5.24846">
        <ele>436</ele>
        <time>2021-03-20T18:23:46+01:00</time>
      </trkpt>
      <trkpt lat="44.71093" lon="5.24886">
        <ele>434</ele>
        <time>2021-03-20T18:23:51+01:00</time>
      </trkpt>
      <trkpt lat="44.7109" lon="5.2495">
        <ele>434</ele>
        <time>2021-03-20T18:23:56+01:00</time>
      </trkpt>
      <trkpt lat="44.71097" lon="5.25015">
        <ele>435</ele>
        <time>2021-03-20T18:24:01+01:00</time>
      </trkpt>
      <trkpt lat="44.71099" lon="5.25069">
        <ele>432</ele>
        <time>2021-03-20T18:24:06+01:00</time>
      </trkpt>
      <trkpt lat="44.71099" lon="5.25103">
        <ele>430</ele>
        <time>2021-03-20T18:24:11+01:00</time>
      </trkpt>
      <trkpt lat="44.71109" lon="5.25102">
        <ele>430</ele>
        <time>2021-03-20T18:24:16+01:00</time>
      </trkpt>
    </trkseg>
  </trk>
</gpx>